createdAt,value
2017-11-12T00:00:15.400Z,86.70
2017-11-12T00:01:15.388Z,77.00
2017-11-12T00:02:15.379Z,74.50
2017-11-12T00:03:15.372Z,84.70
2017-11-12T00:04:15.363Z,79.60
2017-11-12T00:05:15.356Z,81.50
2017-11-12T00:06:15.350Z,79.30
2017-11-12T00:07:15.340Z,76.70
2017-11-12T00:08:15.332Z,75.30
2017-11-12T00:09:15.328Z,77.60
2017-11-12T00:10:15.322Z,73.90
2017-11-12T00:11:15.312Z,74.20
2017-11-12T00:12:15.305Z,77.20
2017-11-12T00:13:15.297Z,77.70
2017-11-12T00:14:15.290Z,69.90
2017-11-12T00:15:15.281Z,76.70
2017-11-12T00:16:15.272Z,70.00
2017-11-12T00:17:15.262Z,70.30
2017-11-12T00:18:15.254Z,76.10
2017-11-12T00:19:15.245Z,77.30
2017-11-12T00:20:15.237Z,77.70
2017-11-12T00:21:15.228Z,81.60
2017-11-12T00:22:15.222Z,75.30
2017-11-12T00:23:15.213Z,82.30
2017-11-12T00:24:15.205Z,79.30
2017-11-12T00:25:15.202Z,76.00
2017-11-12T00:26:15.194Z,72.70
2017-11-12T00:27:15.185Z,75.30
2017-11-12T00:28:15.177Z,73.30
2017-11-12T00:29:15.171Z,73.20
2017-11-12T00:30:15.163Z,74.60
2017-11-12T00:31:15.152Z,72.30
2017-11-12T00:32:15.146Z,75.60
2017-11-12T00:33:15.134Z,82.40
2017-11-12T00:34:15.125Z,74.30
2017-11-12T00:35:15.118Z,69.60
2017-11-12T00:36:15.108Z,71.30
2017-11-12T00:37:15.102Z,74.40
2017-11-12T00:38:15.093Z,72.90
2017-11-12T00:39:15.084Z,64.40
2017-11-12T00:40:15.076Z,78.00
2017-11-12T00:41:15.073Z,66.10
2017-11-12T00:42:15.064Z,76.60
2017-11-12T00:43:15.057Z,69.60
2017-11-12T00:44:15.048Z,73.20
2017-11-12T00:45:15.053Z,68.70
2017-11-12T00:46:15.039Z,74.40
2017-11-12T00:47:15.024Z,77.10
2017-11-12T00:48:15.016Z,69.80
2017-11-12T00:49:15.005Z,77.30
2017-11-12T00:50:14.996Z,73.00
2017-11-12T00:51:14.986Z,74.20
2017-11-12T00:52:14.980Z,75.40
2017-11-12T00:53:14.972Z,74.80
2017-11-12T00:54:14.963Z,74.70
2017-11-12T00:55:14.972Z,73.20
2017-11-12T00:56:14.946Z,69.50
2017-11-12T00:57:14.943Z,78.50
2017-11-12T00:58:14.937Z,66.20
2017-11-12T00:59:14.927Z,69.50
2017-11-12T01:00:14.922Z,66.10
2017-11-12T01:01:14.910Z,67.10
2017-11-12T01:02:14.903Z,65.60
2017-11-12T01:03:14.895Z,66.30
2017-11-12T01:04:14.884Z,61.30
2017-11-12T01:05:14.873Z,67.00
2017-11-12T01:06:14.864Z,63.40
2017-11-12T01:07:14.857Z,58.90
2017-11-12T01:08:14.851Z,61.50
2017-11-12T01:09:14.841Z,64.20
2017-11-12T01:10:14.834Z,60.20
2017-11-12T01:11:14.824Z,56.90
2017-11-12T01:12:14.817Z,61.50
2017-11-12T01:13:14.813Z,63.90
2017-11-12T01:14:14.807Z,61.90
2017-11-12T01:15:14.798Z,60.80
2017-11-12T01:16:14.790Z,60.10
2017-11-12T01:17:14.783Z,61.80
2017-11-12T01:18:14.774Z,59.80
2017-11-12T01:19:14.765Z,63.80
2017-11-12T01:20:14.760Z,62.80
2017-11-12T01:21:14.748Z,62.00
2017-11-12T01:22:14.738Z,60.30
2017-11-12T01:23:14.730Z,58.20
2017-11-12T01:24:14.723Z,64.30
2017-11-12T01:25:14.716Z,64.60
2017-11-12T01:26:14.715Z,68.70
2017-11-12T01:27:14.701Z,58.20
2017-11-12T01:28:14.693Z,57.30
2017-11-12T01:29:14.689Z,59.40
2017-11-12T01:30:14.681Z,58.70
2017-11-12T01:31:14.673Z,62.60
2017-11-12T01:32:14.665Z,54.80
2017-11-12T01:33:14.658Z,57.50
2017-11-12T01:34:14.656Z,61.20
2017-11-12T01:35:14.640Z,58.30
2017-11-12T01:36:14.635Z,52.80
2017-11-12T01:37:14.622Z,61.40
2017-11-12T01:38:14.614Z,59.00
2017-11-12T01:39:14.605Z,53.50
2017-11-12T01:40:14.598Z,58.50
2017-11-12T01:41:14.593Z,62.40
2017-11-12T01:42:14.583Z,59.50
2017-11-12T01:43:14.575Z,55.30
2017-11-12T01:44:14.570Z,54.10
2017-11-12T01:45:14.565Z,56.60
2017-11-12T01:46:14.557Z,62.90
2017-11-12T01:47:14.548Z,55.30
2017-11-12T01:48:14.542Z,56.70
2017-11-12T01:49:14.534Z,59.70
2017-11-12T01:50:14.525Z,57.50
2017-11-12T01:51:14.517Z,58.70
2017-11-12T01:52:14.508Z,56.40
2017-11-12T01:53:14.497Z,60.10
2017-11-12T01:54:14.492Z,58.20
2017-11-12T01:55:14.482Z,61.10
2017-11-12T01:56:14.476Z,55.00
2017-11-12T01:57:14.472Z,54.60
2017-11-12T01:58:14.463Z,54.00
2017-11-12T01:59:14.456Z,57.00
2017-11-12T02:00:14.449Z,54.80
2017-11-12T02:01:14.437Z,53.70
2017-11-12T02:02:14.429Z,53.90
2017-11-12T02:03:14.424Z,57.00
2017-11-12T02:04:14.418Z,54.30
2017-11-12T02:05:14.405Z,56.10
2017-11-12T02:06:14.398Z,60.50
2017-11-12T02:07:14.390Z,60.20
2017-11-12T02:08:14.381Z,63.30
2017-11-12T02:09:14.378Z,63.70
2017-11-12T02:10:14.372Z,60.00
2017-11-12T02:11:14.363Z,61.10
2017-11-12T02:12:14.356Z,60.60
2017-11-12T02:13:14.348Z,58.40
2017-11-12T02:14:14.342Z,60.30
2017-11-12T02:15:14.333Z,60.90
2017-11-12T02:16:14.326Z,59.80
2017-11-12T02:17:14.314Z,63.40
2017-11-12T02:18:14.305Z,61.50
2017-11-12T02:19:14.298Z,60.00
2017-11-12T02:20:14.290Z,64.60
2017-11-12T02:21:14.282Z,65.90
2017-11-12T02:22:14.277Z,65.20
2017-11-12T02:23:14.266Z,64.30
2017-11-12T02:24:14.260Z,70.80
2017-11-12T02:25:14.264Z,64.80
2017-11-12T02:26:14.249Z,61.20
2017-11-12T02:27:14.240Z,62.60
2017-11-12T02:28:14.237Z,57.10
2017-11-12T02:29:14.225Z,64.70
2017-11-12T02:30:14.219Z,57.70
2017-11-12T02:31:14.209Z,64.30
2017-11-12T02:32:14.204Z,65.70
2017-11-12T02:33:14.191Z,58.40
2017-11-12T02:34:14.183Z,59.00
2017-11-12T02:35:14.175Z,60.50
2017-11-12T02:36:14.167Z,61.20
2017-11-12T02:37:14.161Z,63.90
2017-11-12T02:38:14.152Z,62.80
2017-11-12T02:39:14.143Z,59.60
2017-11-12T02:40:14.136Z,58.70
2017-11-12T02:41:14.133Z,60.30
2017-11-12T02:42:14.125Z,58.70
2017-11-12T02:43:14.117Z,58.10
2017-11-12T02:44:14.109Z,64.90
2017-11-12T02:45:14.101Z,65.10
2017-11-12T02:46:14.094Z,63.00
2017-11-12T02:47:14.088Z,65.90
2017-11-12T02:48:14.079Z,67.80
2017-11-12T02:49:14.067Z,60.60
2017-11-12T02:50:14.059Z,66.00
2017-11-12T02:51:14.049Z,59.40
2017-11-12T02:52:14.047Z,59.30
2017-11-12T02:53:14.035Z,60.70
2017-11-12T02:54:14.027Z,58.30
2017-11-12T02:55:14.020Z,57.40
2017-11-12T02:56:14.013Z,56.00
2017-11-12T02:57:14.011Z,55.90
2017-11-12T02:58:14.001Z,55.00
2017-11-12T02:59:13.992Z,54.70
2017-11-12T03:00:13.986Z,53.80
2017-11-12T03:01:13.975Z,56.10
2017-11-12T03:02:13.966Z,56.70
2017-11-12T03:03:13.956Z,56.60
2017-11-12T03:04:13.949Z,58.90
2017-11-12T03:05:13.946Z,62.20
2017-11-12T03:06:13.938Z,56.20
2017-11-12T03:07:13.929Z,62.10
2017-11-12T03:08:13.921Z,63.20
2017-11-12T03:09:13.915Z,58.60
2017-11-12T03:10:13.907Z,61.00
2017-11-12T03:11:13.898Z,53.20
2017-11-12T03:12:13.890Z,52.20
2017-11-12T03:13:13.877Z,56.10
2017-11-12T03:14:13.871Z,50.20
2017-11-12T03:15:13.863Z,54.70
2017-11-12T03:16:13.856Z,52.50
2017-11-12T03:17:13.847Z,49.30
2017-11-12T03:18:13.839Z,55.80
2017-11-12T03:19:13.830Z,52.30
2017-11-12T03:20:13.823Z,56.60
2017-11-12T03:21:13.818Z,58.60
2017-11-12T03:22:13.813Z,55.40
2017-11-12T03:23:13.803Z,59.70
2017-11-12T03:24:13.794Z,60.40
2017-11-12T03:25:13.788Z,59.40
2017-11-12T03:26:13.779Z,58.90
2017-11-12T03:27:13.769Z,57.40
2017-11-12T03:28:13.764Z,60.20
2017-11-12T03:29:13.751Z,62.70
2017-11-12T03:30:13.745Z,60.70
2017-11-12T03:31:13.736Z,63.00
2017-11-12T03:32:13.731Z,60.40
2017-11-12T03:33:13.719Z,61.20
2017-11-12T03:34:13.711Z,64.70
2017-11-12T03:35:13.703Z,69.00
2017-11-12T03:36:13.694Z,66.20
2017-11-12T03:37:13.692Z,69.80
2017-11-12T03:38:13.684Z,66.80
2017-11-12T03:39:13.675Z,66.50
2017-11-12T03:40:13.669Z,64.60
2017-11-12T03:41:13.660Z,59.00
2017-11-12T03:42:13.653Z,66.70
2017-11-12T03:43:13.644Z,65.90
2017-11-12T03:44:13.636Z,67.10
2017-11-12T03:45:13.624Z,63.20
2017-11-12T03:46:13.618Z,60.50
2017-11-12T03:47:13.607Z,57.40
2017-11-12T03:48:13.601Z,56.60
2017-11-12T03:49:13.593Z,63.60
2017-11-12T03:50:13.586Z,67.90
2017-11-12T03:51:13.576Z,61.10
2017-11-12T03:52:13.571Z,56.00
2017-11-12T03:53:13.565Z,58.50
2017-11-12T03:54:13.558Z,54.40
2017-11-12T03:55:13.550Z,56.20
2017-11-12T03:56:13.541Z,58.50
2017-11-12T03:57:13.534Z,51.50
2017-11-12T03:58:13.536Z,55.30
2017-11-12T03:59:13.520Z,55.50
2017-11-12T04:00:13.517Z,52.10
2017-11-12T04:01:13.500Z,52.50
2017-11-12T04:02:13.492Z,55.90
2017-11-12T04:03:13.483Z,58.60
2017-11-12T04:04:13.475Z,60.20
2017-11-12T04:05:13.473Z,53.90
2017-11-12T04:06:13.470Z,55.50
2017-11-12T04:07:13.456Z,61.30
2017-11-12T04:08:13.450Z,61.30
2017-11-12T04:09:13.438Z,67.10
2017-11-12T04:10:13.429Z,62.00
2017-11-12T04:11:13.422Z,52.20
2017-11-12T04:12:13.415Z,57.00
2017-11-12T04:13:13.406Z,56.50
2017-11-12T04:14:13.399Z,54.30
2017-11-12T04:15:13.392Z,54.00
2017-11-12T04:16:13.388Z,51.90
2017-11-12T04:17:13.380Z,50.40
2017-11-12T04:18:13.371Z,57.80
2017-11-12T04:19:13.371Z,57.20
2017-11-12T04:20:13.355Z,56.80
2017-11-12T04:21:13.349Z,54.20
2017-11-12T04:22:13.341Z,56.10
2017-11-12T04:23:13.332Z,56.10
2017-11-12T04:24:13.324Z,57.80
2017-11-12T04:25:13.315Z,55.30
2017-11-12T04:26:13.306Z,63.00
2017-11-12T04:27:13.298Z,59.80
2017-11-12T04:28:13.291Z,61.70
2017-11-12T04:29:13.282Z,60.60
2017-11-12T04:30:13.275Z,56.00
2017-11-12T04:31:13.267Z,61.20
2017-11-12T04:32:13.260Z,59.10
2017-11-12T04:33:13.256Z,70.50
2017-11-12T04:34:13.249Z,67.40
2017-11-12T04:35:13.241Z,60.80
2017-11-12T04:36:13.233Z,57.70
2017-11-12T04:37:13.225Z,62.50
2017-11-12T04:38:13.219Z,69.90
2017-11-12T04:39:13.210Z,68.30
2017-11-12T04:40:13.206Z,64.90
2017-11-12T04:41:13.188Z,69.10
2017-11-12T04:42:13.181Z,68.70
2017-11-12T04:43:13.174Z,67.30
2017-11-12T04:44:13.167Z,65.20
2017-11-12T04:45:13.160Z,63.90
2017-11-12T04:46:13.152Z,66.00
2017-11-12T04:47:13.143Z,69.80
2017-11-12T04:48:13.135Z,71.80
2017-11-12T04:49:13.132Z,74.50
2017-11-12T04:50:13.126Z,63.20
2017-11-12T04:51:13.116Z,66.40
2017-11-12T04:52:13.108Z,63.90
2017-11-12T04:53:13.101Z,65.50
2017-11-12T04:54:13.094Z,59.00
2017-11-12T04:55:13.086Z,58.90
2017-11-12T04:56:13.078Z,60.90
2017-11-12T04:57:13.065Z,60.20
2017-11-12T04:58:13.058Z,57.50
2017-11-12T04:59:13.051Z,56.50
2017-11-12T05:00:13.043Z,56.80
2017-11-12T05:01:13.034Z,58.90
2017-11-12T05:02:13.027Z,56.00
2017-11-12T05:03:13.019Z,62.90
2017-11-12T05:04:13.011Z,54.90
2017-11-12T05:05:13.009Z,53.60
2017-11-12T05:06:13.000Z,59.20
2017-11-12T05:07:12.992Z,53.10
2017-11-12T05:08:12.983Z,51.90
2017-11-12T05:09:12.973Z,56.20
2017-11-12T05:10:12.965Z,57.10
2017-11-12T05:11:12.954Z,51.10
2017-11-12T05:12:12.949Z,56.90
2017-11-12T05:13:12.944Z,49.50
2017-11-12T05:14:12.936Z,54.10
2017-11-12T05:15:12.926Z,55.00
2017-11-12T05:16:12.919Z,51.30
2017-11-12T05:17:12.912Z,54.70
2017-11-12T05:18:12.904Z,57.50
2017-11-12T05:19:12.896Z,54.60
2017-11-12T05:20:12.889Z,54.90
2017-11-12T05:21:12.876Z,57.10
2017-11-12T05:22:12.868Z,57.50
2017-11-12T05:23:12.860Z,54.00
2017-11-12T05:24:12.853Z,56.50
2017-11-12T05:25:12.845Z,58.70
2017-11-12T05:26:12.836Z,65.40
2017-11-12T05:27:12.829Z,59.50
2017-11-12T05:28:12.820Z,63.00
2017-11-12T05:29:12.816Z,58.50
2017-11-12T05:30:12.819Z,61.50
2017-11-12T05:31:12.801Z,66.30
2017-11-12T05:32:12.792Z,60.70
2017-11-12T05:33:12.786Z,60.90
2017-11-12T05:34:12.778Z,60.20
2017-11-12T05:35:12.771Z,64.70
2017-11-12T05:36:12.763Z,58.80
2017-11-12T05:37:12.754Z,59.30
2017-11-12T05:38:12.745Z,68.60
2017-11-12T05:39:12.735Z,62.30
2017-11-12T05:40:12.729Z,69.00
2017-11-12T05:41:12.721Z,61.40
2017-11-12T05:42:12.714Z,68.10
2017-11-12T05:43:12.710Z,62.70
2017-11-12T05:44:12.702Z,57.70
2017-11-12T05:45:12.695Z,68.30
2017-11-12T05:46:12.686Z,61.10
2017-11-12T05:47:12.678Z,66.90
2017-11-12T05:48:12.672Z,64.10
2017-11-12T05:49:12.672Z,63.40
2017-11-12T05:50:12.657Z,61.30
2017-11-12T05:51:12.648Z,63.20
2017-11-12T05:52:12.640Z,62.80
2017-11-12T05:53:12.629Z,60.10
2017-11-12T05:54:12.623Z,65.10
2017-11-12T05:55:12.614Z,64.60
2017-11-12T05:56:12.611Z,61.70
2017-11-12T05:57:12.600Z,63.10
2017-11-12T05:58:12.591Z,64.90
2017-11-12T05:59:12.585Z,65.80
2017-11-12T06:00:12.576Z,65.60
2017-11-12T06:01:12.573Z,63.80
2017-11-12T06:02:12.566Z,65.50
2017-11-12T06:03:12.558Z,67.10
2017-11-12T06:04:12.551Z,62.40
2017-11-12T06:05:12.543Z,63.30
2017-11-12T06:06:12.536Z,60.90
2017-11-12T06:07:12.526Z,55.80
2017-11-12T06:08:12.519Z,60.30
2017-11-12T06:09:12.508Z,58.20
2017-11-12T06:10:12.501Z,59.60
2017-11-12T06:11:12.497Z,63.90
2017-11-12T06:12:12.486Z,61.50
2017-11-12T06:13:12.484Z,64.10
2017-11-12T06:14:12.476Z,63.20
2017-11-12T06:15:12.467Z,68.40
2017-11-12T06:16:12.461Z,66.90
2017-11-12T06:17:12.450Z,60.70
2017-11-12T06:18:12.441Z,71.40
2017-11-12T06:19:12.433Z,67.20
2017-11-12T06:20:12.425Z,65.90
2017-11-12T06:21:12.418Z,63.90
2017-11-12T06:22:12.414Z,68.10
2017-11-12T06:23:12.404Z,70.40
2017-11-12T06:24:12.398Z,71.20
2017-11-12T06:25:12.393Z,72.30
2017-11-12T06:26:12.385Z,68.20
2017-11-12T06:27:12.377Z,67.40
2017-11-12T06:28:12.370Z,66.10
2017-11-12T06:29:12.364Z,67.90
2017-11-12T06:30:12.359Z,64.90
2017-11-12T06:31:12.346Z,67.70
2017-11-12T06:32:12.340Z,69.50
2017-11-12T06:33:12.329Z,64.90
2017-11-12T06:34:12.322Z,67.30
2017-11-12T06:35:12.313Z,69.70
2017-11-12T06:36:12.306Z,72.30
2017-11-12T06:37:12.299Z,68.10
2017-11-12T06:38:12.290Z,79.20
2017-11-12T06:39:12.284Z,72.10
2017-11-12T06:40:12.276Z,66.40
2017-11-12T06:41:12.272Z,71.30
2017-11-12T06:42:12.266Z,72.90
2017-11-12T06:43:12.259Z,71.10
2017-11-12T06:44:12.251Z,75.00
2017-11-12T06:45:12.245Z,69.50
2017-11-12T06:46:12.236Z,68.40
2017-11-12T06:47:12.227Z,73.10
2017-11-12T06:48:12.221Z,71.60
2017-11-12T06:49:12.208Z,73.60
2017-11-12T06:50:12.201Z,69.80
2017-11-12T06:51:12.193Z,72.80
2017-11-12T06:52:12.186Z,71.90
2017-11-12T06:53:12.178Z,75.50
2017-11-12T06:54:12.169Z,70.70
2017-11-12T06:55:12.162Z,72.30
2017-11-12T06:56:12.155Z,73.40
2017-11-12T06:57:12.152Z,72.80
2017-11-12T06:58:12.145Z,71.90
2017-11-12T06:59:12.140Z,70.20
2017-11-12T07:00:12.129Z,76.10
2017-11-12T07:01:12.121Z,70.80
2017-11-12T07:02:12.115Z,75.20
2017-11-12T07:03:12.111Z,71.40
2017-11-12T07:04:12.098Z,74.70
2017-11-12T07:05:12.086Z,74.50
2017-11-12T07:06:12.080Z,73.70
2017-11-12T07:07:12.072Z,75.90
2017-11-12T07:08:12.064Z,73.90
2017-11-12T07:09:12.057Z,72.50
2017-11-12T07:10:12.049Z,76.00
2017-11-12T07:11:12.040Z,71.80
2017-11-12T07:12:12.033Z,72.00
2017-11-12T07:13:12.032Z,66.30
2017-11-12T07:14:12.031Z,69.80
2017-11-12T07:15:12.015Z,71.40
2017-11-12T07:16:12.007Z,74.30
2017-11-12T07:17:11.996Z,70.30
2017-11-12T07:18:11.989Z,71.50
2017-11-12T07:19:11.980Z,73.70
2017-11-12T07:20:11.973Z,77.00
2017-11-12T07:21:11.970Z,78.20
2017-11-12T07:22:11.966Z,74.00
2017-11-12T07:23:11.955Z,74.60
2017-11-12T07:24:11.947Z,80.60
2017-11-12T07:25:11.939Z,79.20
2017-11-12T07:26:11.932Z,81.50
2017-11-12T07:27:11.926Z,73.00
2017-11-12T07:28:11.917Z,72.10
2017-11-12T07:29:11.910Z,73.70
2017-11-12T07:30:11.898Z,72.60
2017-11-12T07:31:11.890Z,75.00
2017-11-12T07:32:11.883Z,75.40
2017-11-12T07:33:11.876Z,69.00
2017-11-12T07:34:11.868Z,68.90
2017-11-12T07:35:11.859Z,68.30
2017-11-12T07:36:11.854Z,72.00
2017-11-12T07:37:11.850Z,73.00
2017-11-12T07:38:11.841Z,66.50
2017-11-12T07:39:11.834Z,73.70
2017-11-12T07:40:11.826Z,72.00
2017-11-12T07:41:11.819Z,73.60
2017-11-12T07:42:11.812Z,75.30
2017-11-12T07:43:11.804Z,80.60
2017-11-12T07:44:11.798Z,77.90
2017-11-12T07:45:11.788Z,81.10
2017-11-12T07:46:11.780Z,75.70
2017-11-12T07:47:11.771Z,76.50
2017-11-12T07:48:11.763Z,71.10
2017-11-12T07:49:11.756Z,72.40
2017-11-12T07:50:11.748Z,66.90
2017-11-12T07:51:11.739Z,81.50
2017-11-12T07:52:11.733Z,71.40
2017-11-12T07:53:11.731Z,69.10
2017-11-12T07:54:11.734Z,72.40
2017-11-12T07:55:11.714Z,79.30
2017-11-12T07:56:11.708Z,73.50
2017-11-12T07:57:11.705Z,72.60
2017-11-12T07:58:11.696Z,70.40
2017-11-12T07:59:11.685Z,70.00
2017-11-12T08:00:11.680Z,72.90
2017-11-12T08:01:11.667Z,71.90
2017-11-12T08:02:11.659Z,75.30
2017-11-12T08:03:11.652Z,72.40
2017-11-12T08:04:11.648Z,73.50
2017-11-12T08:05:11.638Z,66.40
2017-11-12T08:06:11.631Z,70.40
2017-11-12T08:07:11.621Z,66.70
2017-11-12T08:08:11.614Z,69.70
2017-11-12T08:09:11.614Z,71.30
2017-11-12T08:10:11.605Z,70.00
2017-11-12T08:11:11.597Z,68.70
2017-11-12T08:12:11.591Z,67.90
2017-11-12T08:13:11.585Z,65.60
2017-11-12T08:14:11.577Z,61.00
2017-11-12T08:15:11.569Z,67.20
2017-11-12T08:16:11.563Z,73.70
2017-11-12T08:17:11.551Z,69.10
2017-11-12T08:18:11.546Z,71.60
2017-11-12T08:19:11.536Z,68.40
2017-11-12T08:20:11.528Z,74.80
2017-11-12T08:21:11.528Z,69.40
2017-11-12T08:22:11.518Z,61.80
2017-11-12T08:23:11.512Z,62.60
2017-11-12T08:24:11.505Z,72.00
2017-11-12T08:25:11.492Z,63.90
2017-11-12T08:26:11.486Z,66.50
2017-11-12T08:27:11.477Z,65.80
2017-11-12T08:28:11.471Z,68.50
2017-11-12T08:29:11.463Z,66.60
2017-11-12T08:30:11.456Z,68.10
2017-11-12T08:31:11.449Z,66.60
2017-11-12T08:32:11.442Z,72.00
2017-11-12T08:33:11.437Z,71.70
2017-11-12T08:34:11.478Z,72.40
2017-11-12T08:35:11.424Z,72.60
2017-11-12T08:36:11.416Z,69.40
2017-11-12T08:37:11.408Z,73.60
2017-11-12T08:38:11.412Z,73.40
2017-11-12T08:39:11.403Z,73.00
2017-11-12T08:40:11.387Z,86.30
2017-11-12T08:41:11.375Z,64.70
2017-11-12T08:42:11.368Z,74.30
2017-11-12T08:43:11.360Z,71.60
2017-11-12T08:44:11.353Z,76.30
2017-11-12T08:45:11.349Z,76.00
2017-11-12T08:46:11.338Z,68.60
2017-11-12T08:47:11.331Z,74.90
2017-11-12T08:48:11.323Z,68.10
2017-11-12T08:49:11.322Z,72.90
2017-11-12T08:50:11.312Z,62.60
2017-11-12T08:51:11.305Z,68.30
2017-11-12T08:52:11.299Z,64.70
2017-11-12T08:53:11.290Z,63.20
2017-11-12T08:54:11.285Z,62.80
2017-11-12T08:55:11.276Z,60.40
2017-11-12T08:56:11.273Z,66.20
2017-11-12T08:57:11.258Z,62.60
2017-11-12T08:58:11.250Z,62.40
2017-11-12T08:59:11.244Z,65.20
2017-11-12T09:00:11.235Z,75.90
2017-11-12T09:01:11.229Z,77.20
2017-11-12T09:02:11.222Z,78.70
2017-11-12T09:03:11.220Z,88.80
2017-11-12T09:04:11.206Z,77.30
2017-11-12T09:05:11.204Z,73.40
2017-11-12T09:06:11.197Z,74.30
2017-11-12T09:07:11.188Z,69.90
2017-11-12T09:08:11.182Z,69.30
2017-11-12T09:09:11.174Z,69.10
2017-11-12T09:10:11.167Z,70.90
2017-11-12T09:11:11.160Z,70.50
2017-11-12T09:12:11.153Z,56.70
2017-11-12T09:13:11.142Z,55.00
2017-11-12T09:14:11.134Z,59.00
2017-11-12T09:15:11.128Z,53.50
2017-11-12T09:16:11.121Z,60.60
2017-11-12T09:17:11.116Z,54.40
2017-11-12T09:18:11.108Z,50.90
2017-11-12T09:19:11.099Z,61.40
2017-11-12T09:20:11.093Z,57.00
2017-11-12T09:21:11.090Z,57.40
2017-11-12T09:22:11.084Z,59.90
2017-11-12T09:23:11.076Z,65.40
2017-11-12T09:24:11.070Z,58.50
2017-11-12T09:25:11.064Z,56.10
2017-11-12T09:26:11.056Z,67.10
2017-11-12T09:27:11.050Z,59.60
2017-11-12T09:28:11.044Z,56.30
2017-11-12T09:29:11.031Z,52.30
2017-11-12T09:30:11.027Z,55.70
2017-11-12T09:31:11.019Z,63.90
2017-11-12T09:32:11.019Z,57.00
2017-11-12T09:33:11.006Z,66.20
2017-11-12T09:34:10.999Z,64.80
2017-11-12T09:35:10.991Z,61.00
2017-11-12T09:36:10.985Z,58.90
2017-11-12T09:37:10.982Z,57.80
2017-11-12T09:38:10.976Z,52.00
2017-11-12T09:39:10.969Z,43.70
2017-11-12T09:40:10.963Z,49.30
2017-11-12T09:41:10.955Z,42.70
2017-11-12T09:42:10.950Z,39.30
2017-11-12T09:43:10.943Z,38.40
2017-11-12T09:44:10.936Z,36.90
2017-11-12T09:45:10.927Z,42.40
2017-11-12T09:46:10.923Z,38.80
2017-11-12T09:47:10.914Z,38.30
2017-11-12T09:48:10.906Z,34.50
2017-11-12T09:49:10.901Z,37.00
2017-11-12T09:50:10.895Z,37.50
2017-11-12T09:51:10.886Z,41.20
2017-11-12T09:52:10.881Z,35.60
2017-11-12T09:53:10.880Z,34.50
2017-11-12T09:54:10.873Z,31.50
2017-11-12T09:55:10.867Z,32.40
2017-11-12T09:56:10.859Z,32.30
2017-11-12T09:57:10.859Z,32.30
2017-11-12T09:58:10.852Z,32.40
2017-11-12T09:59:10.841Z,31.60
2017-11-12T10:00:10.836Z,33.70
2017-11-12T10:01:10.825Z,29.50
2017-11-12T10:02:10.819Z,30.00
2017-11-12T10:03:10.812Z,29.40
2017-11-12T10:04:10.806Z,34.30
2017-11-12T10:05:10.801Z,37.10
2017-11-12T10:06:10.796Z,34.70
2017-11-12T10:07:10.786Z,28.90
2017-11-12T10:08:10.781Z,32.10
2017-11-12T10:09:10.782Z,29.90
2017-11-12T10:10:10.773Z,33.60
2017-11-12T10:11:10.766Z,35.30
2017-11-12T10:12:10.759Z,34.10
2017-11-12T10:13:10.759Z,33.20
2017-11-12T10:14:10.749Z,33.90
2017-11-12T10:15:10.741Z,28.60
2017-11-12T10:16:10.748Z,36.60
2017-11-12T10:17:10.724Z,36.50
2017-11-12T10:18:10.719Z,35.50
2017-11-12T10:19:10.712Z,35.10
2017-11-12T10:20:10.707Z,38.20
2017-11-12T10:21:10.701Z,43.10
2017-11-12T10:22:10.698Z,36.60
2017-11-12T10:23:10.688Z,42.10
2017-11-12T10:24:10.680Z,47.30
2017-11-12T10:25:10.680Z,51.50
2017-11-12T10:26:10.673Z,40.30
2017-11-12T10:27:10.666Z,46.60
2017-11-12T10:28:10.659Z,42.50
2017-11-12T10:29:10.651Z,38.00
2017-11-12T10:30:10.644Z,35.80
2017-11-12T10:31:10.637Z,29.80
2017-11-12T10:32:10.631Z,29.30
2017-11-12T10:33:10.629Z,30.90
2017-11-12T10:34:10.622Z,33.00
2017-11-12T10:35:10.617Z,33.90
2017-11-12T10:36:10.609Z,34.50
2017-11-12T10:37:10.602Z,29.50
2017-11-12T10:38:10.594Z,32.50
2017-11-12T10:39:10.592Z,30.00
2017-11-12T10:40:10.581Z,34.70
2017-11-12T10:41:10.584Z,33.20
2017-11-12T10:42:10.569Z,28.90
2017-11-12T10:43:10.557Z,33.30
2017-11-12T10:44:10.550Z,30.40
2017-11-12T10:45:10.545Z,33.40
2017-11-12T10:46:10.538Z,31.00
2017-11-12T10:47:10.530Z,35.70
2017-11-12T10:48:10.525Z,37.40
2017-11-12T10:49:10.523Z,35.10
2017-11-12T10:50:10.516Z,35.50
2017-11-12T10:51:10.509Z,32.60
2017-11-12T10:52:10.502Z,36.60
2017-11-12T10:53:10.494Z,33.80
2017-11-12T10:54:10.494Z,34.90
2017-11-12T10:55:10.500Z,36.30
2017-11-12T10:56:10.477Z,37.20
2017-11-12T10:57:10.465Z,38.50
2017-11-12T10:58:10.463Z,29.90
2017-11-12T10:59:10.472Z,31.10
2017-11-12T11:00:10.446Z,33.10
2017-11-12T11:01:10.444Z,31.50
2017-11-12T11:02:10.435Z,32.10
2017-11-12T11:03:10.435Z,31.70
2017-11-12T11:04:10.423Z,30.60
2017-11-12T11:05:10.420Z,33.00
2017-11-12T11:06:10.415Z,29.20
2017-11-12T11:07:10.410Z,34.00
2017-11-12T11:08:10.408Z,31.90
2017-11-12T11:09:10.397Z,30.90
2017-11-12T11:10:10.390Z,22.30
2017-11-12T11:11:10.385Z,22.50
2017-11-12T11:12:10.380Z,19.30
2017-11-12T11:13:10.370Z,24.00
2017-11-12T11:14:10.365Z,22.70
2017-11-12T11:15:10.358Z,23.00
2017-11-12T11:16:10.353Z,23.60
2017-11-12T11:17:10.346Z,21.60
2017-11-12T11:18:10.342Z,17.50
2017-11-12T11:19:10.336Z,23.00
2017-11-12T11:20:10.330Z,21.40
2017-11-12T11:21:10.328Z,20.10
2017-11-12T11:22:10.324Z,17.30
2017-11-12T11:23:10.320Z,21.30
2017-11-12T11:24:10.312Z,21.20
2017-11-12T11:25:10.308Z,21.40
2017-11-12T11:26:10.302Z,22.50
2017-11-12T11:27:10.294Z,19.30
2017-11-12T11:28:10.289Z,22.40
2017-11-12T11:29:10.292Z,20.50
2017-11-12T11:30:10.280Z,18.30
2017-11-12T11:31:10.268Z,21.30
2017-11-12T11:32:10.264Z,20.10
2017-11-12T11:33:10.261Z,17.90
2017-11-12T11:34:10.258Z,19.30
2017-11-12T11:35:10.250Z,22.00
2017-11-12T11:36:10.244Z,18.90
2017-11-12T11:37:10.236Z,19.40
2017-11-12T11:38:10.231Z,19.40
2017-11-12T11:39:10.230Z,19.20
2017-11-12T11:40:10.219Z,18.50
2017-11-12T11:41:10.214Z,16.70
2017-11-12T11:42:10.210Z,18.40
2017-11-12T11:43:10.204Z,20.90
2017-11-12T11:44:10.199Z,18.10
2017-11-12T11:45:10.197Z,18.30
2017-11-12T11:46:10.192Z,20.30
2017-11-12T11:47:10.185Z,14.20
2017-11-12T11:48:10.180Z,13.30
2017-11-12T11:49:10.177Z,16.00
2017-11-12T11:50:10.170Z,13.30
2017-11-12T11:51:10.164Z,14.50
2017-11-12T11:52:10.159Z,15.30
2017-11-12T11:53:10.149Z,17.90
2017-11-12T11:54:10.147Z,13.20
2017-11-12T11:55:10.138Z,14.60
2017-11-12T11:56:10.132Z,15.90
2017-11-12T11:57:10.125Z,14.80
2017-11-12T11:58:10.128Z,17.10
2017-11-12T11:59:10.116Z,18.40
2017-11-12T12:00:10.111Z,15.50
2017-11-12T12:01:10.112Z,15.30
2017-11-12T12:02:10.105Z,17.90
2017-11-12T12:03:10.099Z,15.80
2017-11-12T12:04:10.095Z,13.00
2017-11-12T12:05:10.088Z,14.90
2017-11-12T12:06:10.083Z,14.30
2017-11-12T12:07:10.077Z,14.50
2017-11-12T12:08:10.073Z,13.80
2017-11-12T12:09:10.065Z,14.10
2017-11-12T12:10:10.059Z,12.90
2017-11-12T12:11:10.053Z,12.20
2017-11-12T12:12:10.056Z,11.10
2017-11-12T12:13:10.044Z,13.90
2017-11-12T12:14:10.039Z,12.30
2017-11-12T12:15:10.034Z,13.50
2017-11-12T12:16:10.029Z,13.60
2017-11-12T12:17:10.027Z,13.10
2017-11-12T12:18:10.024Z,12.70
2017-11-12T12:19:10.031Z,14.10
2017-11-12T12:20:10.013Z,11.10
2017-11-12T12:21:10.008Z,13.20
2017-11-12T12:22:10.004Z,17.60
2017-11-12T12:23:09.998Z,33.60
2017-11-12T12:24:09.994Z,12.90
2017-11-12T12:25:09.986Z,13.60
2017-11-12T12:26:09.980Z,14.20
2017-11-12T12:27:09.976Z,12.80
2017-11-12T12:28:09.971Z,12.70
2017-11-12T12:29:09.967Z,13.60
2017-11-12T12:30:09.964Z,13.00
2017-11-12T12:31:09.959Z,14.50
2017-11-12T12:32:09.954Z,12.00
2017-11-12T12:33:09.955Z,14.10
2017-11-12T12:34:09.950Z,15.30
2017-11-12T12:35:09.945Z,15.90
2017-11-12T12:36:09.941Z,13.90
2017-11-12T12:37:09.932Z,12.80
2017-11-12T12:38:09.932Z,11.90
2017-11-12T12:39:09.928Z,13.00
2017-11-12T12:40:09.920Z,12.40
2017-11-12T12:41:09.921Z,13.40
2017-11-12T12:42:09.919Z,13.20
2017-11-12T12:43:09.914Z,13.80
2017-11-12T12:44:09.909Z,12.50
2017-11-12T12:45:09.905Z,11.90
2017-11-12T12:46:09.901Z,13.00
2017-11-12T12:47:09.897Z,13.30
2017-11-12T12:48:09.892Z,15.00
2017-11-12T12:49:09.886Z,11.70
2017-11-12T12:50:09.879Z,11.00
2017-11-12T12:51:09.881Z,10.70
2017-11-12T12:52:09.872Z,11.80